Time;durP1;ratioP1;P1;durP2;ratioP2;P2;SDS_P1;SDS_P2;PMS_P1;PMS_P2;Temp;Humidity;BMP_temperature;BMP_pressure;BME280_temperature;BME280_humidity;BME280_pressure;Samples;Min_cycle;Max_cycle;Signal;HPM_P1;HPM_P2
2022/10/06 00:00:46;;;;;;;6.43;1.83;;;13.20;99.90;;;;;;5046446;28;20142;-73
2022/10/06 00:03:12;;;;;;;9.63;2.35;;;13.20;99.90;;;;;;5030540;28;20072;-74
2022/10/06 00:05:38;;;;;;;5.03;2.08;;;13.20;99.90;;;;;;5046642;28;20080;-74
2022/10/06 00:08:04;;;;;;;2.75;1.70;;;13.10;99.90;;;;;;5062982;28;20040;-74
2022/10/06 00:10:30;;;;;;;11.10;2.28;;;13.10;99.90;;;;;;5046674;28;20041;-74
2022/10/06 00:12:56;;;;;;;3.05;1.45;;;13.10;99.90;;;;;;5061204;28;20041;-74
2022/10/06 00:15:29;;;;;;;3.95;1.90;;;13.10;99.90;;;;;;5057669;28;20063;-74
2022/10/06 00:17:56;;;;;;;3.13;1.77;;;13.00;99.90;;;;;;5081873;28;20062;-74
2022/10/06 00:20:23;;;;;;;9.07;2.63;;;13.10;99.90;;;;;;5047071;28;20053;-74
2022/10/06 00:22:49;;;;;;;2.97;1.20;;;13.10;99.90;;;;;;5062897;28;20055;-74
2022/10/06 00:25:19;;;;;;;6.43;2.03;;;13.10;99.90;;;;;;5056616;28;20562;-74
2022/10/06 00:27:47;;;;;;;11.48;1.95;;;13.10;99.90;;;;;;5065801;28;20084;-73
2022/10/06 00:30:17;;;;;;;5.38;2.28;;;13.00;99.90;;;;;;5066279;28;20036;-73
2022/10/06 00:32:51;;;;;;;4.38;1.67;;;13.00;99.90;;;;;;5065747;28;20048;-73
2022/10/06 00:35:17;;;;;;;2.50;2.00;;;13.00;99.90;;;;;;5060846;28;20127;-73
2022/10/06 00:37:43;;;;;;;11.02;1.95;;;13.00;99.90;;;;;;5046189;28;20484;-74
2022/10/06 00:40:09;;;;;;;3.33;1.25;;;12.90;99.90;;;;;;5045300;28;20048;-73
2022/10/06 00:42:50;;;;;;;1.88;1.40;;;12.90;99.90;;;;;;5045930;28;20044;-74
2022/10/06 00:45:18;;;;;;;3.08;2.10;;;12.90;99.90;;;;;;5047353;28;20068;-74
2022/10/06 00:47:45;;;;;;;14.18;2.13;;;12.90;99.90;;;;;;5046009;28;20053;-74
2022/10/06 00:50:13;;;;;;;4.38;2.55;;;12.90;99.90;;;;;;5051564;28;20120;-73
2022/10/06 00:52:39;;;;;;;2.83;1.92;;;12.90;99.90;;;;;;5065662;28;20543;-74
2022/10/06 00:55:08;;;;;;;2.70;1.42;;;12.90;99.90;;;;;;5063957;28;20364;-74
2022/10/06 00:57:38;;;;;;;6.72;2.42;;;12.90;99.90;;;;;;5065401;28;20045;-74
2022/10/06 01:00:08;;;;;;;2.95;1.85;;;12.90;99.90;;;;;;5065651;28;20047;-75
2022/10/06 01:02:42;;;;;;;4.22;1.52;;;12.90;99.90;;;;;;5119116;22;20490;-75
2022/10/06 01:05:14;;;;;;;2.70;1.98;;;12.80;99.90;;;;;;5025533;28;20530;-74
2022/10/06 01:07:40;;;;;;;;;;;12.90;99.90;;;;;;5015277;28;20267;-74
2022/10/06 01:10:06;;;;;;;2.22;2.00;;;12.80;99.90;;;;;;5024881;28;20410;-74
2022/10/06 01:12:33;;;;;;;3.88;1.63;;;12.80;99.90;;;;;;5009363;28;20116;-75
2022/10/06 01:14:59;;;;;;;4.65;1.73;;;12.80;99.90;;;;;;5006366;28;20481;-74
2022/10/06 01:17:44;;;;;;;6.95;1.80;;;12.70;99.90;;;;;;5023598;28;20073;-74
2022/10/06 01:20:14;;;;;;;8.50;2.50;;;12.70;99.90;;;;;;5025718;28;20049;-74
2022/10/06 01:22:43;;;;;;;7.35;1.73;;;12.70;99.90;;;;;;5025236;28;20487;-74
2022/10/06 01:25:15;;;;;;;3.08;2.13;;;12.60;99.90;;;;;;5017779;28;20067;-74
2022/10/06 01:27:44;;;;;;;3.75;1.95;;;12.70;99.90;;;;;;5024629;28;20033;-74
2022/10/06 01:30:14;;;;;;;3.75;2.22;;;12.70;99.90;;;;;;5005993;28;20451;-73
2022/10/06 01:32:40;;;;;;;14.10;1.80;;;12.60;99.90;;;;;;5020232;28;20463;-75
2022/10/06 01:35:06;;;;;;;2.30;1.95;;;12.60;99.90;;;;;;5004860;28;20073;-74
2022/10/06 01:37:32;;;;;;;2.63;1.90;;;12.60;99.90;;;;;;5010086;28;20326;-76
2022/10/06 01:39:58;;;;;;;5.32;1.67;;;12.60;99.90;;;;;;5023091;28;20059;-74
2022/10/06 01:42:23;;;;;;;3.38;1.42;;;12.60;99.90;;;;;;5025300;28;20487;-74
2022/10/06 01:44:49;;;;;;;3.22;1.80;;;12.70;99.90;;;;;;5024759;28;20041;-75
2022/10/06 01:47:14;;;;;;;3.95;2.55;;;12.60;99.90;;;;;;5024727;28;20095;-74
2022/10/06 01:49:40;;;;;;;8.65;2.45;;;12.60;99.90;;;;;;5024980;28;20685;-74
2022/10/06 01:52:06;;;;;;;6.75;2.33;;;12.60;99.90;;;;;;5024865;28;20045;-74
2022/10/06 01:54:31;;;;;;;4.07;2.15;;;12.60;99.90;;;;;;5022874;28;20392;-75
2022/10/06 01:56:57;;;;;;;6.10;1.27;;;12.60;99.90;;;;;;5024147;28;20396;-73
2022/10/06 01:59:23;;;;;;;3.97;1.88;;;12.60;99.90;;;;;;5023267;28;20057;-74
2022/10/06 02:01:49;;;;;;;5.63;1.65;;;12.60;99.90;;;;;;5023938;28;20045;-74
2022/10/06 02:04:15;;;;;;;4.88;1.90;;;12.60;99.90;;;;;;5025012;28;20131;-74
2022/10/06 02:06:40;;;;;;;2.60;1.65;;;12.60;99.90;;;;;;5024184;28;20195;-74
2022/10/06 02:09:06;;;;;;;5.18;2.08;;;12.60;99.90;;;;;;5023284;28;20487;-74
2022/10/06 02:11:32;;;;;;;4.90;1.65;;;12.60;99.90;;;;;;5023729;28;20069;-75
2022/10/06 02:13:58;;;;;;;4.45;1.77;;;12.60;99.90;;;;;;5023938;28;20064;-74
2022/10/06 02:16:23;;;;;;;9.02;1.75;;;12.60;99.90;;;;;;5023617;28;20057;-74
2022/10/06 02:18:49;;;;;;;6.03;2.25;;;12.60;99.90;;;;;;5023248;28;20041;-74
2022/10/06 02:21:20;;;;;;;6.78;2.17;;;12.60;99.90;;;;;;5024346;28;20045;-74
2022/10/06 02:23:46;;;;;;;8.30;2.47;;;12.60;99.90;;;;;;5024483;28;20037;-74
2022/10/06 02:26:18;;;;;;;8.63;1.77;;;12.60;99.90;;;;;;5021991;28;20041;-74
2022/10/06 02:28:44;;;;;;;6.03;2.00;;;12.60;99.90;;;;;;5024637;28;20057;-74
2022/10/06 02:31:10;;;;;;;3.95;1.70;;;12.60;99.90;;;;;;5023251;28;20045;-74
2022/10/06 02:33:37;;;;;;;3.45;1.60;;;12.50;99.90;;;;;;5024173;28;20099;-74
2022/10/06 02:36:04;;;;;;;3.75;2.63;;;12.50;99.90;;;;;;5024616;28;20047;-75
2022/10/06 02:38:31;;;;;;;3.80;2.42;;;12.50;99.90;;;;;;5023748;28;20099;-74
2022/10/06 02:40:57;;;;;;;3.40;2.00;;;12.50;99.90;;;;;;5024070;28;20060;-74
2022/10/06 02:43:23;;;;;;;7.10;2.47;;;12.40;99.90;;;;;;5024696;28;20041;-74
2022/10/06 02:45:53;;;;;;;7.88;2.30;;;12.40;99.90;;;;;;5023896;28;20095;-74
2022/10/06 02:48:18;;;;;;;3.90;1.50;;;12.40;99.90;;;;;;5022725;28;20088;-74
2022/10/06 02:50:44;;;;;;;5.28;2.50;;;12.40;99.90;;;;;;5022606;28;20423;-74
2022/10/06 02:53:10;;;;;;;13.85;3.08;;;12.40;99.90;;;;;;5023925;28;20578;-74
2022/10/06 02:55:35;;;;;;;3.58;1.60;;;12.40;99.90;;;;;;5023449;28;20499;-74
2022/10/06 02:58:02;;;;;;;4.32;2.60;;;12.40;99.90;;;;;;5024746;28;20045;-74
2022/10/06 03:00:28;;;;;;;3.30;1.65;;;12.40;99.90;;;;;;5024491;28;20064;-74
2022/10/06 03:02:53;;;;;;;7.30;2.05;;;12.40;99.90;;;;;;5023640;28;20543;-74
2022/10/06 03:05:19;;;;;;;5.13;2.33;;;12.40;99.90;;;;;;5023128;28;20077;-74
2022/10/06 03:07:45;;;;;;;4.50;2.17;;;12.40;99.90;;;;;;5024499;28;20400;-74
2022/10/06 03:10:11;;;;;;;2.67;1.33;;;12.40;99.90;;;;;;5022124;28;20042;-74
2022/10/06 03:12:36;;;;;;;6.20;1.90;;;12.40;99.90;;;;;;5023751;28;20041;-74
2022/10/06 03:15:03;;;;;;;6.47;2.20;;;12.40;99.90;;;;;;5023364;28;20068;-75
2022/10/06 03:17:28;;;;;;;1.63;1.05;;;12.40;99.90;;;;;;5023034;28;20042;-74
2022/10/06 03:19:55;;;;;;;2.72;2.28;;;12.40;99.90;;;;;;5023441;28;20052;-74
2022/10/06 03:22:21;;;;;;;9.25;2.95;;;12.40;99.90;;;;;;5023612;28;20403;-74
2022/10/06 03:24:47;;;;;;;4.65;3.25;;;12.40;99.90;;;;;;5021544;28;20037;-74
2022/10/06 03:27:12;;;;;;;3.65;1.15;;;12.40;99.90;;;;;;5022764;28;20499;-74
2022/10/06 03:29:38;;;;;;;5.45;2.58;;;12.30;99.90;;;;;;5023576;28;20045;-73
2022/10/06 03:32:04;;;;;;;3.17;1.90;;;12.30;99.90;;;;;;5022757;28;20049;-74
2022/10/06 03:34:29;;;;;;;4.18;1.80;;;12.20;99.90;;;;;;5024988;28;20037;-74
2022/10/06 03:36:55;;;;;;;18.05;2.63;;;12.20;99.90;;;;;;5026822;28;20435;-74
2022/10/06 03:39:21;;;;;;;4.65;2.53;;;12.20;99.90;;;;;;5026523;28;20052;-74
2022/10/06 03:41:46;;;;;;;3.65;1.95;;;12.20;99.90;;;;;;5014816;28;20115;-73
2022/10/06 03:44:12;;;;;;;2.80;1.60;;;12.20;99.90;;;;;;5006523;28;20049;-74
2022/10/06 03:46:37;;;;;;;3.30;1.67;;;12.10;99.90;;;;;;5026162;28;20037;-74
2022/10/06 03:49:04;;;;;;;4.13;1.83;;;12.10;99.90;;;;;;5027320;28;20051;-75
2022/10/06 03:51:32;;;;;;;18.77;2.42;;;12.10;99.90;;;;;;5027988;28;20125;-74
2022/10/06 03:53:58;;;;;;;3.08;2.13;;;12.10;99.90;;;;;;5026587;28;20046;-74
2022/10/06 03:56:33;;;;;;;6.65;2.17;;;12.10;99.90;;;;;;5025277;28;20057;-74
2022/10/06 03:59:08;;;;;;;5.75;2.08;;;12.10;99.90;;;;;;5007753;28;20042;-74
2022/10/06 04:01:36;;;;;;;11.10;2.25;;;12.10;99.90;;;;;;5007628;28;20587;-75
2022/10/06 04:04:03;;;;;;;11.50;2.65;;;12.10;99.90;;;;;;5005541;28;20663;-76
2022/10/06 04:06:31;;;;;;;8.32;1.67;;;12.10;99.90;;;;;;5007393;28;20049;-74
2022/10/06 04:08:57;;;;;;;5.68;1.77;;;12.10;99.90;;;;;;5007602;28;20045;-74
2022/10/06 04:11:25;;;;;;;5.55;1.50;;;12.10;99.90;;;;;;5006471;28;20088;-74
2022/10/06 04:13:53;;;;;;;4.28;1.70;;;12.10;99.90;;;;;;5006861;28;20049;-75
2022/10/06 04:16:23;;;;;;;18.60;2.60;;;12.10;99.90;;;;;;5007527;28;20483;-74
2022/10/06 04:18:55;;;;;;;6.75;1.80;;;12.10;99.90;;;;;;5006680;28;20128;-73
2022/10/06 04:21:22;;;;;;;3.53;1.27;;;12.10;99.90;;;;;;5007169;28;20061;-74
2022/10/06 04:23:48;;;;;;;3.25;1.65;;;12.10;99.90;;;;;;5017649;28;20489;-73
2022/10/06 04:26:18;;;;;;;3.88;2.38;;;12.20;99.90;;;;;;5025830;28;20048;-73
2022/10/06 04:28:45;;;;;;;4.93;2.13;;;12.20;99.90;;;;;;5026489;28;20056;-73
2022/10/06 04:31:20;;;;;;;3.97;2.03;;;12.20;99.90;;;;;;5025416;28;20415;-74
2022/10/06 04:33:49;;;;;;;3.60;2.05;;;12.20;99.90;;;;;;5020084;28;20045;-74
2022/10/06 04:36:21;;;;;;;10.07;3.45;;;12.20;99.90;;;;;;5007992;28;20442;-74
2022/10/06 04:38:52;;;;;;;3.83;1.65;;;12.20;99.90;;;;;;5017385;28;20038;-74
2022/10/06 04:41:19;;;;;;;7.07;3.60;;;12.20;99.90;;;;;;5025279;28;20037;-74
2022/10/06 04:43:49;;;;;;;4.25;1.55;;;12.30;99.90;;;;;;5020602;28;20046;-74
2022/10/06 04:46:15;;;;;;;10.52;2.60;;;12.20;99.90;;;;;;5023111;28;20514;-75
2022/10/06 04:48:41;;;;;;;8.05;2.70;;;12.20;99.90;;;;;;5023576;28;20057;-76
2022/10/06 04:51:13;;;;;;;5.72;2.30;;;12.20;99.90;;;;;;5026365;28;20423;-74
2022/10/06 04:53:40;;;;;;;9.38;2.00;;;12.20;99.90;;;;;;5024253;28;20049;-75
2022/10/06 04:56:09;;;;;;;3.90;2.28;;;12.10;99.90;;;;;;5025242;28;20072;-74
2022/10/06 04:58:38;;;;;;;3.85;2.42;;;12.10;99.90;;;;;;5011713;28;20036;-74
2022/10/06 05:01:12;;;;;;;5.78;1.92;;;12.10;99.90;;;;;;5026137;28;20049;-75
2022/10/06 05:03:38;;;;;;;6.20;2.38;;;12.10;99.90;;;;;;5024107;28;20057;-75
2022/10/06 05:06:12;;;;;;;3.45;1.98;;;12.10;99.90;;;;;;5025540;28;20045;-75
2022/10/06 05:08:38;;;;;;;4.55;2.13;;;12.00;99.90;;;;;;5007768;28;20203;-75
2022/10/06 05:11:07;;;;;;;6.50;2.80;;;12.00;99.90;;;;;;5022880;28;20128;-75
2022/10/06 05:13:33;;;;;;;5.57;2.25;;;12.00;99.90;;;;;;5024110;28;20160;-75
2022/10/06 05:16:00;;;;;;;3.28;1.67;;;12.00;99.90;;;;;;5009861;28;20053;-75
2022/10/06 05:18:27;;;;;;;5.97;1.92;;;12.00;99.90;;;;;;5021173;28;20037;-75
2022/10/06 05:21:05;;;;;;;8.13;2.92;;;12.00;99.90;;;;;;5022392;28;20120;-74
2022/10/06 05:23:32;;;;;;;6.63;2.67;;;12.00;99.90;;;;;;5019637;28;20570;-75
2022/10/06 05:25:59;;;;;;;6.18;3.15;;;12.00;99.90;;;;;;5021820;28;20077;-75
2022/10/06 05:28:26;;;;;;;4.72;2.10;;;12.00;99.90;;;;;;5023098;28;20080;-75
2022/10/06 05:30:55;;;;;;;4.55;2.53;;;12.00;99.90;;;;;;5019594;28;20046;-74
2022/10/06 05:33:22;;;;;;;16.02;3.75;;;11.90;99.90;;;;;;5017769;28;20503;-76
2022/10/06 05:36:03;;;;;;;9.82;3.42;;;12.00;99.90;;;;;;5021171;28;20079;-76
2022/10/06 05:38:28;;;;;;;5.43;2.72;;;11.90;99.90;;;;;;5003590;28;20049;-76
2022/10/06 05:41:11;;;;;;;9.57;3.65;;;11.90;99.90;;;;;;5020083;28;20145;-76
2022/10/06 05:43:38;;;;;;;5.65;2.55;;;11.90;99.90;;;;;;5022977;28;20041;-76
2022/10/06 05:46:06;;;;;;;3.22;2.40;;;11.90;99.90;;;;;;5022742;28;20046;-75
2022/10/06 05:48:32;;;;;;;3.25;1.90;;;12.00;99.90;;;;;;5013317;28;20057;-77
2022/10/06 05:51:06;;;;;;;20.75;2.33;;;11.90;99.90;;;;;;5005713;28;20046;-76
2022/10/06 05:53:34;;;;;;;5.00;1.98;;;11.90;99.90;;;;;;5018459;28;20038;-77
2022/10/06 05:56:05;;;;;;;14.13;2.72;;;11.90;99.90;;;;;;5024056;28;20049;-76
2022/10/06 05:58:32;;;;;;;16.98;2.55;;;11.80;99.90;;;;;;5021553;28;20041;-76
2022/10/06 06:01:12;;;;;;;6.18;3.00;;;11.80;99.90;;;;;;5023136;28;20045;-76
2022/10/06 06:03:38;;;;;;;7.53;2.17;;;11.90;99.90;;;;;;5023427;28;20053;-76
2022/10/06 06:06:17;;;;;;;24.02;3.28;;;11.80;99.90;;;;;;5023766;28;20054;-76
2022/10/06 06:08:42;;;;;;;3.15;1.42;;;11.80;99.90;;;;;;5022153;28;20072;-76
2022/10/06 06:11:08;;;;;;;5.30;2.38;;;11.90;99.90;;;;;;5023007;28;20504;-76
2022/10/06 06:13:35;;;;;;;5.43;2.72;;;11.80;99.90;;;;;;5023496;28;20041;-76
2022/10/06 06:16:05;;;;;;;10.05;2.75;;;11.90;99.90;;;;;;5024384;28;20121;-75
2022/10/06 06:18:32;;;;;;;5.97;2.22;;;11.90;99.90;;;;;;5024828;28;20056;-79
2022/10/06 06:21:00;;;;;;;8.80;2.30;;;11.90;99.90;;;;;;5007045;28;20046;-74
2022/10/06 06:23:37;;;;;;;8.07;2.17;;;11.90;99.90;;;;;;5025431;28;20106;-75
2022/10/06 06:26:23;;;;;;;24.85;2.83;;;11.90;99.90;;;;;;5020486;28;20125;-75
2022/10/06 06:28:50;;;;;;;6.45;3.13;;;11.90;99.90;;;;;;5022828;28;20643;-77
2022/10/06 06:31:19;;;;;;;5.30;1.65;;;11.90;99.90;;;;;;5022301;28;20472;-78
2022/10/06 06:33:46;;;;;;;7.32;2.38;;;11.90;99.90;;;;;;5024271;28;20107;-78
2022/10/06 06:36:16;;;;;;;10.93;1.88;;;11.90;99.90;;;;;;5023737;28;20037;-74
2022/10/06 06:38:46;;;;;;;5.00;2.22;;;11.90;99.90;;;;;;5005541;28;20042;-74
2022/10/06 06:41:16;;;;;;;5.07;2.50;;;11.90;99.90;;;;;;5024157;28;20168;-73
2022/10/06 06:43:42;;;;;;;8.68;2.22;;;11.90;99.90;;;;;;5023300;28;20066;-73
2022/10/06 06:46:08;;;;;;;11.32;1.83;;;11.90;99.90;;;;;;5023531;28;20084;-73
2022/10/06 06:48:36;;;;;;;3.78;2.08;;;12.00;99.90;;;;;;5023015;28;20037;-74
2022/10/06 06:51:03;;;;;;;4.68;2.78;;;12.00;99.90;;;;;;5023109;28;20037;-75
2022/10/06 06:53:29;;;;;;;10.85;3.15;;;12.00;99.90;;;;;;5023515;28;20455;-75
2022/10/06 06:55:55;;;;;;;7.25;2.90;;;12.00;99.90;;;;;;5021354;28;20120;-74
2022/10/06 06:58:21;;;;;;;4.53;1.95;;;12.00;99.90;;;;;;5022606;28;20472;-74
2022/10/06 07:00:49;;;;;;;3.28;1.75;;;12.00;99.90;;;;;;5022096;28;20037;-74
2022/10/06 07:03:17;;;;;;;3.22;2.05;;;12.10;99.90;;;;;;5022815;28;20053;-75
2022/10/06 07:05:46;;;;;;;7.30;3.08;;;12.10;99.90;;;;;;5022473;28;20099;-74
2022/10/06 07:08:19;;;;;;;6.47;2.40;;;12.10;99.90;;;;;;5023797;28;20395;-75
2022/10/06 07:10:47;;;;;;;7.75;3.15;;;12.10;99.90;;;;;;5025925;28;20044;-74
2022/10/06 07:13:14;;;;;;;5.20;1.83;;;12.10;99.90;;;;;;5025463;28;20377;-74
2022/10/06 07:26:47;;;;;;;10.75;2.63;;;12.30;99.90;;;;;;5025793;28;20132;-74
2022/10/06 07:29:13;;;;;;;3.85;2.47;;;12.30;99.90;;;;;;5025640;28;20037;-74
2022/10/06 07:31:39;;;;;;;3.75;2.20;;;12.40;99.90;;;;;;5025589;28;20392;-74
2022/10/06 07:34:06;;;;;;;6.88;2.47;;;12.40;99.90;;;;;;5024704;28;20081;-74
2022/10/06 07:36:33;;;;;;;5.53;1.73;;;12.50;99.90;;;;;;5024551;28;20393;-75
2022/10/06 07:38:58;;;;;;;5.55;2.70;;;12.50;99.90;;;;;;5025565;28;20404;-75
2022/10/06 07:41:24;;;;;;;4.72;2.35;;;12.50;99.90;;;;;;5025533;28;20045;-74
2022/10/06 07:43:52;;;;;;;3.28;1.48;;;12.50;99.90;;;;;;5025398;28;20044;-74
2022/10/06 07:46:18;;;;;;;2.80;1.65;;;12.60;99.90;;;;;;5025367;28;20500;-74
2022/10/06 07:48:46;;;;;;;7.65;1.65;;;12.60;99.90;;;;;;5023961;28;20136;-74
2022/10/06 07:51:16;;;;;;;5.00;1.42;;;12.60;99.90;;;;;;5025706;28;20077;-74
2022/10/06 07:53:45;;;;;;;4.43;2.58;;;12.60;99.90;;;;;;5024241;28;20065;-75
2022/10/06 07:56:14;;;;;;;7.80;2.35;;;12.70;99.90;;;;;;5025298;28;20045;-74
2022/10/06 07:58:40;;;;;;;8.45;2.03;;;12.70;99.90;;;;;;5024873;28;20045;-74
2022/10/06 08:01:08;;;;;;;6.18;1.33;;;12.80;99.90;;;;;;5024306;28;20415;-74
2022/10/06 08:03:36;;;;;;;14.82;2.78;;;12.80;99.90;;;;;;5025458;28;20057;-75
2022/10/06 08:06:02;;;;;;;4.38;2.40;;;12.80;99.90;;;;;;5024143;28;20049;-74
2022/10/06 08:08:35;;;;;;;6.68;2.38;;;12.90;99.90;;;;;;5025107;28;20042;-74
2022/10/06 08:11:01;;;;;;;10.38;2.42;;;12.90;99.90;;;;;;5025818;28;20042;-74
2022/10/06 08:13:31;;;;;;;5.75;2.00;;;12.90;99.90;;;;;;5024285;28;20052;-74
2022/10/06 08:16:06;;;;;;;3.65;2.53;;;12.90;99.90;;;;;;5025671;28;20060;-74
2022/10/06 08:18:33;;;;;;;5.93;2.63;;;13.00;99.90;;;;;;5023363;28;20040;-75
2022/10/06 08:20:58;;;;;;;6.57;2.78;;;13.00;99.90;;;;;;5023856;28;20057;-74
2022/10/06 08:23:25;;;;;;;9.57;2.40;;;13.00;99.90;;;;;;5025105;28;20416;-75
2022/10/06 08:25:53;;;;;;;3.85;2.00;;;13.10;99.90;;;;;;5023953;28;20099;-74
2022/10/06 08:28:21;;;;;;;13.63;2.15;;;13.10;99.90;;;;;;5024789;28;20081;-74
2022/10/06 08:30:48;;;;;;;3.10;2.03;;;13.10;99.90;;;;;;5023028;28;20116;-74
2022/10/06 08:33:13;;;;;;;15.95;2.47;;;13.10;99.90;;;;;;5024909;28;20099;-75
2022/10/06 08:35:39;;;;;;;3.90;2.20;;;13.10;99.90;;;;;;5023254;28;20438;-74
2022/10/06 08:38:05;;;;;;;9.00;2.00;;;13.20;99.90;;;;;;5023180;28;20550;-74
2022/10/06 08:40:31;;;;;;;11.10;2.78;;;13.20;99.90;;;;;;5022706;28;20045;-74
2022/10/06 08:43:00;;;;;;;6.18;2.78;;;13.20;99.90;;;;;;5025116;28;20041;-74
2022/10/06 08:45:34;;;;;;;3.70;2.58;;;13.30;99.90;;;;;;5024522;28;20041;-74
2022/10/06 08:48:05;;;;;;;4.20;1.73;;;13.30;99.90;;;;;;5024981;28;20053;-74
2022/10/06 08:50:45;;;;;;;5.47;2.40;;;13.30;99.90;;;;;;5024951;28;20121;-75
2022/10/06 08:53:22;;;;;;;3.80;2.03;;;13.30;99.90;;;;;;5024332;28;20038;-74
2022/10/06 08:55:52;;;;;;;3.17;1.63;;;13.40;99.90;;;;;;5022732;28;20038;-74
2022/10/06 08:58:29;;;;;;;10.68;2.25;;;13.40;99.90;;;;;;5024084;28;20042;-74
2022/10/06 09:01:37;;;;;;;2.78;1.60;;;13.40;99.90;;;;;;5023130;28;20049;-74
2022/10/06 09:04:06;;;;;;;4.75;1.98;;;13.40;99.90;;;;;;5020529;28;20092;-75
2022/10/06 09:06:59;;;;;;;3.97;1.80;;;13.50;99.90;;;;;;5022336;28;20049;-75
2022/10/06 09:09:43;;;;;;;4.53;2.25;;;13.50;99.90;;;;;;5023137;28;20115;-74
2022/10/06 09:12:38;;;;;;;5.90;1.90;;;13.50;99.90;;;;;;5024197;28;20045;-74
2022/10/06 09:15:14;;;;;;;2.95;2.38;;;13.60;99.90;;;;;;5023066;28;20049;-74
2022/10/06 09:17:48;;;;;;;2.47;1.35;;;13.60;99.90;;;;;;5023475;28;20049;-74
2022/10/06 09:20:27;;;;;;;5.45;1.48;;;13.70;99.90;;;;;;5023755;28;20113;-74
2022/10/06 09:22:55;;;;;;;3.08;1.70;;;13.70;99.90;;;;;;5023283;28;20318;-74
2022/10/06 09:25:27;;;;;;;3.88;2.40;;;13.70;99.90;;;;;;5022698;28;20087;-74
2022/10/06 09:27:58;;;;;;;2.88;2.00;;;13.80;99.90;;;;;;5023471;28;20068;-74
2022/10/06 09:30:24;;;;;;;10.52;2.35;;;13.80;99.90;;;;;;5022441;28;20085;-74
2022/10/06 09:32:58;;;;;;;4.57;2.35;;;13.90;99.90;;;;;;5023057;28;20095;-74
2022/10/06 09:35:26;;;;;;;4.50;1.42;;;13.90;99.90;;;;;;5021519;28;20044;-73
2022/10/06 09:37:58;;;;;;;15.13;2.08;;;14.00;99.90;;;;;;5023477;28;20865;-75
2022/10/06 09:40:44;;;;;;;8.75;1.85;;;14.00;99.90;;;;;;5020210;28;20425;-74
2022/10/06 09:43:45;;;;;;;3.50;1.10;;;14.10;99.90;;;;;;5021204;28;20128;-74
2022/10/06 09:46:27;;;;;;;11.10;2.10;;;14.10;99.90;;;;;;5018359;28;20121;-75
2022/10/06 09:49:20;;;;;;;17.53;2.17;;;14.20;99.90;;;;;;5017363;28;20139;-74
2022/10/06 09:52:11;;;;;;;4.53;2.22;;;14.20;99.90;;;;;;5015676;28;20297;-75
2022/10/06 09:54:40;;;;;;;2.30;1.23;;;14.20;99.90;;;;;;4995107;28;20049;-76
2022/10/06 09:57:25;;;;;;;3.65;1.17;;;14.20;99.90;;;;;;5015017;28;20403;-76
2022/10/06 09:59:52;;;;;;;2.70;1.58;;;14.10;99.90;;;;;;5012811;28;20042;-75
2022/10/06 10:02:35;;;;;;;2.20;1.17;;;14.10;99.90;;;;;;5013881;28;20046;-75
2022/10/06 10:05:05;;;;;;;3.55;1.15;;;14.20;99.90;;;;;;5015126;28;20049;-76
2022/10/06 10:07:33;;;;;;;3.63;0.98;;;14.20;99.90;;;;;;5017260;28;20041;-75
2022/10/06 10:10:16;;;;;;;3.20;1.75;;;14.20;99.90;;;;;;5017416;28;20060;-75
2022/10/06 10:12:53;;;;;;;6.80;1.88;;;14.20;99.90;;;;;;5017293;28;20064;-75
2022/10/06 10:15:19;;;;;;;2.75;1.30;;;14.30;99.90;;;;;;5015294;28;20053;-75
2022/10/06 10:17:51;;;;;;;10.82;1.60;;;14.30;99.90;;;;;;5013867;28;20104;-75
2022/10/06 10:20:37;;;;;;;5.22;1.10;;;14.30;99.90;;;;;;5015978;28;20470;-75
2022/10/06 10:23:16;;;;;;;3.28;1.80;;;14.30;99.90;;;;;;5018371;28;20060;-75
2022/10/06 10:25:52;;;;;;;2.00;1.42;;;14.30;99.90;;;;;;5013680;28;20087;-76
2022/10/06 10:28:41;;;;;;;14.15;2.42;;;14.30;99.90;;;;;;5010202;28;20057;-75
2022/10/06 10:31:25;;;;;;;3.25;2.03;;;14.40;99.90;;;;;;5008287;28;20041;-75
2022/10/06 10:33:54;;;;;;;4.22;1.42;;;14.40;99.90;;;;;;5008814;28;20045;-75
2022/10/06 10:36:29;;;;;;;2.00;1.15;;;14.50;99.90;;;;;;5019214;28;20041;-75
2022/10/06 10:38:55;;;;;;;2.80;1.42;;;14.50;99.90;;;;;;5014724;28;20040;-75
2022/10/06 10:41:25;;;;;;;3.25;1.60;;;14.50;99.90;;;;;;5014632;28;20049;-76
2022/10/06 10:43:51;;;;;;;2.17;1.23;;;14.50;99.90;;;;;;5007919;28;20115;-75
2022/10/06 10:46:41;;;;;;;2.05;1.45;;;14.60;99.90;;;;;;5011512;28;20064;-75
2022/10/06 10:49:24;;;;;;;3.20;1.60;;;14.50;99.90;;;;;;5011980;28;20124;-76
2022/10/06 10:52:06;;;;;;;2.28;1.30;;;14.50;99.90;;;;;;5012452;28;20329;-75
2022/10/06 10:54:38;;;;;;;3.10;0.80;;;14.60;99.90;;;;;;5016777;28;20132;-76
2022/10/06 10:57:11;;;;;;;4.40;2.00;;;14.60;99.90;;;;;;5018117;28;20038;-76
2022/10/06 11:00:04;;;;;;;6.35;1.45;;;14.60;99.90;;;;;;5018561;28;20045;-75
2022/10/06 11:02:30;;;;;;;1.67;1.23;;;14.60;99.90;;;;;;5018108;28;20095;-75
2022/10/06 11:05:01;;;;;;;4.18;1.85;;;14.60;99.90;;;;;;5019079;28;20063;-75
2022/10/06 11:07:43;;;;;;;2.80;0.85;;;14.60;99.90;;;;;;5019772;28;20092;-75
2022/10/06 11:10:23;;;;;;;3.10;0.88;;;14.60;99.90;;;;;;5019827;28;20045;-76
2022/10/06 11:13:33;;;;;;;8.90;1.60;;;14.50;99.90;;;;;;5018374;28;20046;-75
2022/10/06 11:16:33;;;;;;;2.72;0.77;;;14.50;99.90;;;;;;5001887;28;20129;-75
2022/10/06 11:19:05;;;;;;;5.00;1.35;;;14.50;99.90;;;;;;5017061;28;20497;-75
2022/10/06 11:21:44;;;;;;;3.75;1.20;;;14.60;99.90;;;;;;5018498;28;20052;-75
2022/10/06 11:24:36;;;;;;;8.27;1.45;;;14.60;99.90;;;;;;5019421;28;20045;-75
2022/10/06 11:27:11;;;;;;;6.15;2.33;;;14.60;99.90;;;;;;5016818;28;20057;-76
2022/10/06 11:29:45;;;;;;;5.22;1.30;;;14.60;99.90;;;;;;5001034;28;20595;-75
2022/10/06 11:32:18;;;;;;;4.80;1.77;;;14.60;99.90;;;;;;5018964;28;20088;-76
2022/10/06 11:34:48;;;;;;;2.90;1.45;;;14.60;99.90;;;;;;5016073;28;20045;-76
2022/10/06 11:37:30;;;;;;;9.02;1.65;;;14.60;99.90;;;;;;5026924;28;20049;-76
2022/10/06 11:40:26;;;;;;;8.15;1.40;;;14.60;99.90;;;;;;5021705;28;20037;-76
2022/10/06 11:43:22;;;;;;;3.13;1.48;;;14.60;99.90;;;;;;5024362;28;20064;-76
2022/10/06 11:45:53;;;;;;;6.25;1.52;;;14.60;99.90;;;;;;5018098;28;20060;-76
2022/10/06 11:48:25;;;;;;;3.58;1.17;;;14.60;99.90;;;;;;5025889;28;20103;-76
2022/10/06 11:50:54;;;;;;;4.82;1.98;;;14.60;99.90;;;;;;5025526;28;20373;-76
2022/10/06 11:53:25;;;;;;;2.78;0.80;;;14.60;99.90;;;;;;5024879;28;20463;-76
2022/10/06 11:56:22;;;;;;;2.38;1.75;;;14.60;99.90;;;;;;5024624;28;20042;-77
2022/10/06 11:58:50;;;;;;;2.55;1.52;;;14.60;99.90;;;;;;5025509;28;20079;-76
2022/10/06 12:01:38;;;;;;;6.70;2.63;;;14.60;99.90;;;;;;5025911;28;20204;-76
2022/10/06 12:04:09;;;;;;;2.80;1.40;;;14.70;99.90;;;;;;5025551;28;20126;-77
2022/10/06 12:06:44;;;;;;;4.70;1.90;;;14.70;99.90;;;;;;5024912;28;20103;-77
2022/10/06 12:09:31;;;;;;;3.35;1.40;;;14.70;99.90;;;;;;5023960;28;20303;-76
2022/10/06 12:12:20;;;;;;;6.93;1.88;;;14.80;99.90;;;;;;5026004;28;20487;-76
2022/10/06 12:15:18;;;;;;;5.13;1.92;;;14.80;99.90;;;;;;5023690;28;20531;-77
2022/10/06 12:18:23;;;;;;;4.53;1.88;;;14.90;99.90;;;;;;5013270;28;20099;-76
2022/10/06 12:20:52;;;;;;;4.00;1.45;;;14.90;99.90;;;;;;5024556;28;20033;-76
2022/10/06 12:23:46;;;;;;;4.28;1.50;;;14.90;99.90;;;;;;5023573;28;20049;-76
2022/10/06 12:26:42;;;;;;;1.85;0.98;;;14.90;99.90;;;;;;5022301;28;20074;-77
2022/10/06 12:29:29;;;;;;;3.53;1.63;;;14.90;99.90;;;;;;4999222;28;20049;-76
2022/10/06 12:32:13;;;;;;;5.10;1.35;;;15.00;99.90;;;;;;5023576;28;20030;-77
2022/10/06 12:34:38;;;;;;;5.60;1.63;;;15.00;99.90;;;;;;5018565;28;20037;-77
2022/10/06 12:37:42;;;;;;;14.00;1.67;;;15.00;99.90;;;;;;5020405;28;20048;-76
2022/10/06 12:40:47;;;;;;;4.45;1.40;;;15.00;99.90;;;;;;5022266;28;20099;-75
2022/10/06 12:43:13;;;;;;;2.72;1.13;;;15.00;99.90;;;;;;5016174;28;20500;-75
2022/10/06 12:46:11;;;;;;;7.20;1.73;;;14.90;99.90;;;;;;5023848;28;20044;-76
2022/10/06 12:49:01;;;;;;;3.03;1.25;;;14.90;99.90;;;;;;5005529;28;20054;-76
2022/10/06 12:51:29;;;;;;;5.45;1.67;;;14.90;99.90;;;;;;5023879;28;20040;-76
2022/10/06 12:54:04;;;;;;;3.10;1.65;;;14.90;99.90;;;;;;5021964;28;20707;-76
2022/10/06 12:56:34;;;;;;;8.73;1.85;;;14.90;99.90;;;;;;5012305;28;20041;-76
2022/10/06 12:59:30;;;;;;;5.97;1.80;;;14.90;99.90;;;;;;5024490;28;20049;-76
2022/10/06 13:02:03;;;;;;;3.28;1.48;;;15.00;99.90;;;;;;5023846;28;20041;-75
2022/10/06 13:04:50;;;;;;;5.28;1.67;;;14.90;99.90;;;;;;5024556;28;20057;-75
2022/10/06 13:07:22;;;;;;;4.07;1.17;;;14.90;99.90;;;;;;5022635;28;20051;-75
2022/10/06 13:09:50;;;;;;;10.43;1.88;;;14.90;99.90;;;;;;5023524;28;20073;-75
2022/10/06 13:12:28;;;;;;;2.50;1.10;;;15.00;99.90;;;;;;5025146;28;20037;-75
2022/10/06 13:15:13;;;;;;;3.33;1.10;;;15.00;99.90;;;;;;5019471;28;20042;-75
2022/10/06 13:17:43;;;;;;;2.70;1.20;;;15.00;99.90;;;;;;5023280;28;20072;-75
2022/10/06 13:20:37;;;;;;;2.35;1.63;;;15.00;99.90;;;;;;5030517;28;20130;-75